Time;durP1;ratioP1;P1;durP2;ratioP2;P2;SDS_P1;SDS_P2;PMS_P1;PMS_P2;Temp;Humidity;BMP_temperature;BMP_pressure;BME280_temperature;BME280_humidity;BME280_pressure;Samples;Min_cycle;Max_cycle;Signal;HPM_P1;HPM_P2
2024/01/16 00:01:44;;;;;;;11.07;8.37;;;;;;;3.35;57.62;93404.63;5051591;28;20214;-74
2024/01/16 00:04:12;;;;;;;10.87;8.30;;;;;;;3.39;57.88;93402.56;5068696;28;20316;-73
2024/01/16 00:06:41;;;;;;;13.50;9.53;;;;;;;3.58;57.25;93423.19;5053398;28;20244;-73
2024/01/16 00:09:08;;;;;;;11.23;8.50;;;;;;;3.39;57.75;93444.13;5051406;28;20213;-73
2024/01/16 00:11:34;;;;;;;15.50;10.63;;;;;;;3.43;57.82;93422.09;5050719;28;20190;-73
2024/01/16 00:13:59;;;;;;;12.13;8.53;;;;;;;3.55;57.55;93428.69;5047635;28;20244;-72
2024/01/16 00:16:25;;;;;;;14.77;11.03;;;;;;;3.41;57.67;93427.41;5052290;28;20279;-72
2024/01/16 00:18:50;;;;;;;16.20;10.83;;;;;;;3.57;58.10;93431.97;5054111;28;20228;-72
2024/01/16 00:21:16;;;;;;;15.17;11.13;;;;;;;3.54;58.17;93396.69;5053319;28;20229;-85
2024/01/16 00:23:41;;;;;;;13.33;9.53;;;;;;;3.32;58.49;93404.94;5054537;28;20228;-84
2024/01/16 00:26:06;;;;;;;11.07;8.87;;;;;;;3.57;57.93;93431.16;5067499;28;20201;-74
2024/01/16 00:28:32;;;;;;;12.20;9.10;;;;;;;3.59;57.51;93418.81;5049808;28;20247;-71
2024/01/16 00:30:58;;;;;;;13.00;9.57;;;;;;;3.60;57.54;93428.25;5047779;28;20221;-73
2024/01/16 00:33:23;;;;;;;12.50;9.20;;;;;;;3.85;57.17;93439.66;5052735;28;20275;-85
2024/01/16 00:35:48;;;;;;;11.30;8.73;;;;;;;3.73;56.83;93428.69;5051499;28;20217;-74
2024/01/16 00:38:14;;;;;;;10.50;8.13;;;;;;;3.69;57.16;93432.56;5052219;28;20247;-74
2024/01/16 00:40:39;;;;;;;9.57;8.07;;;;;;;3.66;57.74;93441.47;5052211;28;20233;-84
2024/01/16 00:43:05;;;;;;;12.87;8.37;;;;;;;3.75;57.18;93444.97;5052661;28;20229;-74
2024/01/16 00:45:30;;;;;;;9.83;8.13;;;;;;;3.79;56.78;93443.69;5053018;28;20316;-73
2024/01/16 00:47:55;;;;;;;10.37;8.03;;;;;;;3.64;57.96;93437.41;5052287;28;20213;-73
2024/01/16 00:50:21;;;;;;;12.43;7.70;;;;;;;3.77;57.97;93437.84;5052372;28;20192;-73
2024/01/16 00:52:47;;;;;;;11.53;8.33;;;;;;;3.83;57.58;93442.44;5052941;28;20260;-74
2024/01/16 00:55:12;;;;;;;12.37;8.80;;;;;;;3.71;58.23;93461.81;5068772;28;20423;-72
2024/01/16 00:57:38;;;;;;;11.53;8.57;;;;;;;3.72;58.07;93468.66;5052215;28;20233;-73
2024/01/16 01:00:05;;;;;;;11.67;8.43;;;;;;;3.75;58.11;93430.19;5067867;28;20224;-75
2024/01/16 01:02:30;;;;;;;12.03;8.70;;;;;;;3.78;58.33;93478.47;5052288;28;20212;-75
2024/01/16 01:04:56;;;;;;;11.97;9.13;;;;;;;3.81;58.33;93466.94;5069202;28;20214;-73
2024/01/16 01:07:21;;;;;;;14.17;9.03;;;;;;;3.92;58.06;93483.13;5068071;28;20222;-74
2024/01/16 01:09:46;;;;;;;10.60;8.77;;;;;;;3.89;58.41;93517.22;5048893;28;20229;-73
2024/01/16 01:12:12;;;;;;;12.67;8.87;;;;;;;3.75;58.74;93470.97;5049375;28;20217;-74
2024/01/16 01:14:37;;;;;;;9.57;8.10;;;;;;;3.78;58.55;93462.03;5050545;28;20243;-73
2024/01/16 01:17:03;;;;;;;12.47;9.23;;;;;;;3.90;58.38;93472.09;5052362;28;20190;-72
2024/01/16 01:19:29;;;;;;;11.03;8.60;;;;;;;3.90;58.41;93463.44;5049553;28;20289;-78
2024/01/16 01:21:54;;;;;;;11.77;8.83;;;;;;;3.93;58.67;93470.97;5051965;28;20217;-78
2024/01/16 01:24:19;;;;;;;10.70;8.57;;;;;;;3.96;58.18;93484.47;5046094;28;20334;-79
2024/01/16 01:26:45;;;;;;;12.63;9.47;;;;;;;4.07;57.91;93474.81;5052194;28;20220;-79
2024/01/16 01:29:10;;;;;;;12.70;9.20;;;;;;;3.95;58.14;93467.22;5050853;28;20189;-79
2024/01/16 01:31:36;;;;;;;10.70;8.77;;;;;;;3.98;58.11;93468.72;5052666;28;20564;-79
2024/01/16 01:34:01;;;;;;;11.87;8.63;;;;;;;4.05;58.02;93453.34;5045667;28;20228;-79
2024/01/16 01:36:27;;;;;;;10.93;8.87;;;;;;;4.10;58.08;93471.91;5049449;28;20228;-79
2024/01/16 01:38:53;;;;;;;11.33;8.80;;;;;;;4.05;57.75;93474.13;5051846;28;20245;-78
2024/01/16 01:41:18;;;;;;;11.67;9.47;;;;;;;4.08;58.02;93456.44;5052606;28;20240;-78
2024/01/16 01:43:44;;;;;;;12.20;9.17;;;;;;;4.03;57.96;93469.06;5053220;28;20185;-78
2024/01/16 01:46:11;;;;;;;10.93;8.97;;;;;;;4.02;58.30;93461.44;5051204;28;20228;-78
2024/01/16 01:48:44;;;;;;;12.60;9.20;;;;;;;4.01;58.30;93449.38;5051443;28;20313;-78
2024/01/16 01:51:11;;;;;;;9.87;8.17;;;;;;;4.02;59.05;93449.25;5049487;28;20267;-78
2024/01/16 01:53:39;;;;;;;10.03;8.73;;;;;;;4.13;59.24;93462.00;5036013;28;20232;-77
2024/01/16 01:56:07;;;;;;;11.07;8.57;;;;;;;4.09;59.35;93476.28;5053290;28;20193;-77
2024/01/16 01:58:38;;;;;;;11.10;8.90;;;;;;;4.13;59.46;93469.00;5055406;28;20225;-81
2024/01/16 02:01:05;;;;;;;10.63;7.97;;;;;;;4.19;59.52;93461.41;5055156;28;20228;-78
2024/01/16 02:03:39;;;;;;;12.77;8.07;;;;;;;4.22;59.54;93469.88;5051776;28;20247;-80
2024/01/16 02:06:04;;;;;;;10.07;7.63;;;;;;;4.23;59.38;93443.72;5068016;28;20229;-79
2024/01/16 02:08:29;;;;;;;10.53;8.50;;;;;;;4.24;59.90;93455.75;5054668;28;20284;-79
2024/01/16 02:10:55;;;;;;;10.53;8.23;;;;;;;4.23;59.57;93459.31;5055459;28;20185;-80
2024/01/16 02:13:23;;;;;;;10.73;8.20;;;;;;;4.16;59.52;93461.69;5055526;28;20229;-79
2024/01/16 02:15:49;;;;;;;10.23;7.77;;;;;;;4.19;59.73;93474.41;5055793;28;20304;-79
2024/01/16 02:18:16;;;;;;;9.20;7.63;;;;;;;4.27;59.98;93475.44;5071754;28;20351;-79
2024/01/16 02:20:42;;;;;;;8.87;7.23;;;;;;;4.26;59.87;93484.22;5055550;28;20213;-79
2024/01/16 02:23:08;;;;;;;9.97;7.97;;;;;;;4.23;60.27;93485.34;5055690;28;20205;-78
2024/01/16 02:25:34;;;;;;;11.20;8.47;;;;;;;4.20;60.63;93483.06;5051217;28;20225;-79
2024/01/16 02:28:01;;;;;;;9.70;8.07;;;;;;;4.21;60.57;93469.06;5055961;28;20218;-79
2024/01/16 02:30:26;;;;;;;9.67;8.00;;;;;;;4.20;60.63;93470.84;5051904;28;20279;-78
2024/01/16 02:32:52;;;;;;;8.90;7.77;;;;;;;4.09;61.27;93488.47;5061432;28;20221;-77
2024/01/16 02:35:18;;;;;;;9.83;8.03;;;;;;;4.19;61.40;93481.41;5050647;28;20272;-78
2024/01/16 02:37:44;;;;;;;10.37;7.00;;;;;;;4.25;61.39;93492.97;5052237;28;20182;-79
2024/01/16 02:40:10;;;;;;;9.67;7.43;;;;;;;4.24;61.62;93497.38;5053711;28;20248;-77
2024/01/16 02:42:37;;;;;;;9.83;7.40;;;;;;;4.21;61.65;93495.06;5052597;28;20263;-78
2024/01/16 02:45:04;;;;;;;10.33;7.77;;;;;;;4.25;61.92;93499.03;5053464;28;20225;-78
2024/01/16 02:47:29;;;;;;;9.07;7.73;;;;;;;4.25;62.10;93499.03;5037490;28;20193;-77
2024/01/16 02:49:55;;;;;;;9.00;7.57;;;;;;;4.22;62.42;93511.50;5055106;28;20212;-77
2024/01/16 02:52:20;;;;;;;10.20;7.80;;;;;;;4.24;62.36;93518.19;5064571;28;20226;-78
2024/01/16 02:54:46;;;;;;;9.07;7.83;;;;;;;4.34;62.30;93531.94;5053794;28;20286;-78
2024/01/16 02:57:11;;;;;;;9.03;6.93;;;;;;;4.26;62.61;93550.09;5054798;28;20241;-78
2024/01/16 02:59:37;;;;;;;9.43;7.27;;;;;;;4.39;61.87;93566.13;5046477;28;20260;-77
2024/01/16 03:02:02;;;;;;;8.80;7.60;;;;;;;4.23;62.34;93583.41;5051881;28;20537;-78
2024/01/16 03:04:28;;;;;;;10.40;7.60;;;;;;;4.26;62.67;93593.50;5054273;28;20224;-79
2024/01/16 03:06:53;;;;;;;9.13;7.70;;;;;;;4.34;62.66;93601.38;5054508;28;20229;-78
2024/01/16 03:09:18;;;;;;;10.23;7.67;;;;;;;4.36;62.37;93600.28;5053793;28;20240;-77
2024/01/16 03:11:44;;;;;;;10.37;7.43;;;;;;;4.30;62.42;93592.22;5048769;28;20283;-77
2024/01/16 03:14:09;;;;;;;10.43;7.70;;;;;;;4.37;62.15;93603.69;5049270;28;20199;-78
2024/01/16 03:16:35;;;;;;;11.03;7.07;;;;;;;4.36;62.11;93613.28;5052594;28;20218;-78
2024/01/16 03:19:00;;;;;;;10.13;7.53;;;;;;;4.43;62.49;93632.53;5051906;28;20281;-77
2024/01/16 03:21:26;;;;;;;9.37;7.50;;;;;;;4.27;63.07;93637.56;5049196;28;20225;-78
2024/01/16 03:23:51;;;;;;;8.93;7.30;;;;;;;4.30;63.93;93642.47;5050300;28;20227;-77
2024/01/16 03:26:17;;;;;;;7.93;6.37;;;;;;;4.27;64.47;93662.78;5049058;28;20189;-78
2024/01/16 03:28:43;;;;;;;7.67;6.23;;;;;;;4.31;65.90;93658.94;5053958;28;20526;-78
2024/01/16 03:31:08;;;;;;;7.90;6.20;;;;;;;4.16;69.17;93663.81;5052340;28;20252;-78
2024/01/16 03:33:34;;;;;;;8.10;6.20;;;;;;;4.31;69.06;93664.13;5070898;28;20213;-79
2024/01/16 03:36:00;;;;;;;6.90;5.93;;;;;;;4.26;70.16;93667.16;5052763;28;20240;-79
2024/01/16 03:38:26;;;;;;;6.73;5.17;;;;;;;4.41;70.72;93670.06;5054136;28;20185;-78
2024/01/16 03:40:52;;;;;;;5.10;4.60;;;;;;;4.33;71.68;93676.03;5054904;28;20654;-78
2024/01/16 03:43:18;;;;;;;5.00;4.50;;;;;;;4.54;71.92;93674.91;5071106;28;20236;-79
2024/01/16 03:45:44;;;;;;;4.30;3.90;;;;;;;4.41;72.62;93691.72;5053230;28;20232;-78
2024/01/16 03:48:09;;;;;;;4.47;3.97;;;;;;;4.34;73.11;93708.06;5050146;28;20225;-79
2024/01/16 03:50:36;;;;;;;4.30;3.87;;;;;;;4.31;73.27;93709.19;5036674;28;20300;-78
2024/01/16 03:53:03;;;;;;;4.33;3.93;;;;;;;4.25;73.34;93707.19;5052687;28;20185;-78
2024/01/16 03:55:29;;;;;;;3.37;3.07;;;;;;;4.25;72.94;93706.34;5051165;28;20225;-77
2024/01/16 03:57:54;;;;;;;3.77;3.47;;;;;;;4.22;72.93;93719.63;5050369;28;20241;-78
2024/01/16 04:00:20;;;;;;;3.80;3.50;;;;;;;4.18;73.06;93738.16;5051768;28;20217;-76
2024/01/16 04:02:45;;;;;;;3.70;3.40;;;;;;;4.12;72.59;93732.72;5048962;28;20233;-76
2024/01/16 04:05:11;;;;;;;3.33;3.03;;;;;;;4.13;72.22;93745.56;5051047;28;20217;-75
2024/01/16 04:07:36;;;;;;;4.07;3.10;;;;;;;4.12;72.23;93753.53;5053193;28;20221;-76
2024/01/16 04:10:03;;;;;;;3.07;2.87;;;;;;;3.87;72.09;93755.78;5053225;28;20221;-76
2024/01/16 04:12:28;;;;;;;3.03;2.77;;;;;;;3.93;72.17;93759.63;5050065;28;20294;-75
2024/01/16 04:14:53;;;;;;;3.00;2.70;;;;;;;4.07;71.24;93773.94;5063918;28;20300;-75
2024/01/16 04:17:20;;;;;;;3.63;3.33;;;;;;;3.85;71.44;93783.72;5048544;28;20189;-77
2024/01/16 04:19:45;;;;;;;3.13;2.83;;;;;;;3.97;70.88;93784.38;5053834;28;20208;-76
2024/01/16 04:22:11;;;;;;;3.23;2.63;;;;;;;3.80;71.03;93785.94;5051577;28;20221;-76
2024/01/16 04:24:36;;;;;;;2.30;2.10;;;;;;;3.79;70.84;93792.06;5054059;28;20331;-76
2024/01/16 04:27:02;;;;;;;2.70;2.50;;;;;;;3.76;70.71;93795.78;5050694;28;20244;-76
2024/01/16 04:29:28;;;;;;;2.90;2.70;;;;;;;3.62;70.43;93813.59;5051082;28;20194;-76
2024/01/16 04:31:53;;;;;;;2.30;2.10;;;;;;;3.50;71.01;93805.13;5053481;28;20192;-77
2024/01/16 04:34:18;;;;;;;2.40;2.20;;;;;;;3.59;70.66;93806.91;5053940;28;20224;-76
2024/01/16 04:36:44;;;;;;;2.13;1.93;;;;;;;3.65;69.59;93792.53;5051337;28;20228;-76
2024/01/16 04:39:09;;;;;;;1.77;1.67;;;;;;;3.65;69.65;93810.72;5045894;28;20213;-76
2024/01/16 04:41:35;;;;;;;1.90;1.80;;;;;;;3.54;70.10;93804.72;5050745;28;20241;-79
2024/01/16 04:44:01;;;;;;;1.97;1.83;;;;;;;3.60;69.43;93816.34;5054932;28;20197;-78
2024/01/16 04:46:26;;;;;;;1.70;1.60;;;;;;;3.40;69.95;93825.13;5051698;28;20305;-78
2024/01/16 04:48:52;;;;;;;1.90;1.80;;;;;;;3.30;70.19;93825.13;5051364;28;20217;-78
2024/01/16 04:51:17;;;;;;;1.70;1.60;;;;;;;3.38;69.95;93843.44;5068447;28;20248;-76
2024/01/16 04:53:43;;;;;;;1.97;1.87;;;;;;;3.50;69.58;93831.13;5049649;28;20222;-79
2024/01/16 04:56:08;;;;;;;1.80;1.67;;;;;;;3.45;69.45;93848.94;5055281;28;20212;-79
2024/01/16 04:58:34;;;;;;;3.40;1.70;;;;;;;3.45;69.40;93856.72;5053063;28;20360;-78
2024/01/16 05:01:02;;;;;;;2.23;2.03;;;;;;;3.50;69.02;93867.50;5053094;28;20216;-80
2024/01/16 05:03:29;;;;;;;2.20;2.00;;;;;;;3.45;68.53;93870.53;5053063;28;20222;-79
2024/01/16 05:05:55;;;;;;;1.60;1.50;;;;;;;3.40;67.93;93890.91;5050345;28;20221;-79
2024/01/16 05:08:21;;;;;;;1.50;1.40;;;;;;;3.29;67.87;93894.47;5052919;28;20215;-77
2024/01/16 05:10:47;;;;;;;2.00;1.80;;;;;;;3.30;68.12;93903.06;5054871;28;20185;-77
2024/01/16 05:13:12;;;;;;;1.57;1.47;;;;;;;3.15;67.62;93905.22;5050215;28;20298;-79
2024/01/16 05:15:38;;;;;;;1.80;1.70;;;;;;;3.22;67.78;93910.72;5052654;28;20328;-80
2024/01/16 05:18:04;;;;;;;2.03;1.83;;;;;;;3.36;67.13;93918.09;5046177;28;20222;-80
2024/01/16 05:20:29;;;;;;;1.70;1.60;;;;;;;3.25;67.47;93910.44;5050505;28;20210;-79
2024/01/16 05:22:54;;;;;;;1.63;1.53;;;;;;;3.36;67.21;93925.91;5054635;28;20201;-78
2024/01/16 05:25:21;;;;;;;1.27;1.17;;;;;;;3.24;67.17;93939.97;5051844;28;20308;-80
2024/01/16 05:27:46;;;;;;;1.40;1.30;;;;;;;3.11;66.83;93960.19;5070027;28;20221;-80
2024/01/16 05:30:12;;;;;;;1.50;1.40;;;;;;;2.93;67.32;93958.19;5051130;28;20278;-80
2024/01/16 05:32:39;;;;;;;1.67;1.50;;;;;;;3.01;66.97;93968.75;5051556;28;20229;-78
2024/01/16 05:35:05;;;;;;;1.40;1.30;;;;;;;3.07;66.63;93962.22;5052356;28;20269;-79
2024/01/16 05:37:30;;;;;;;1.40;1.30;;;;;;;3.19;66.46;93973.31;5051214;28;20242;-79
2024/01/16 05:39:56;;;;;;;1.33;1.23;;;;;;;3.15;66.20;93971.94;5046536;28;20222;-81
2024/01/16 05:42:21;;;;;;;2.67;1.30;;;;;;;3.15;66.31;93984.94;5052833;28;20295;-77
2024/01/16 05:44:46;;;;;;;1.37;1.27;;;;;;;2.97;66.34;93985.56;5051871;28;20228;-77
2024/01/16 05:47:12;;;;;;;1.47;1.37;;;;;;;2.95;66.65;94005.63;5053959;28;20192;-76
2024/01/16 05:49:37;;;;;;;1.63;1.53;;;;;;;2.94;66.72;94005.75;5052129;28;20236;-76
2024/01/16 05:52:03;;;;;;;1.50;1.40;;;;;;;3.16;65.37;94009.97;5051775;28;20221;-78
2024/01/16 05:54:29;;;;;;;1.63;1.53;;;;;;;3.15;65.10;94018.69;5039036;28;20221;-80
2024/01/16 05:56:54;;;;;;;1.90;1.70;;;;;;;3.15;64.35;94024.69;5052554;28;20237;-70
2024/01/16 05:59:19;;;;;;;1.50;1.23;;;;;;;3.25;64.15;94035.13;5067720;28;20272;-72
2024/01/16 06:01:45;;;;;;;1.20;1.10;;;;;;;3.28;63.19;94032.28;5035244;28;20214;-71
2024/01/16 06:04:10;;;;;;;1.47;1.30;;;;;;;3.18;63.68;94047.84;5049637;28;20313;-72
2024/01/16 06:06:36;;;;;;;1.57;1.30;;;;;;;3.17;63.05;94043.59;5048249;28;20225;-70
2024/01/16 06:09:04;;;;;;;1.57;1.47;;;;;;;3.36;63.08;94066.22;5049477;28;20225;-71
2024/01/16 06:11:31;;;;;;;1.77;1.53;;;;;;;3.13;63.31;94057.81;5048871;28;20212;-71
2024/01/16 06:13:57;;;;;;;1.63;1.50;;;;;;;3.27;63.28;94082.59;5064355;28;20185;-71
2024/01/16 06:16:22;;;;;;;1.50;1.40;;;;;;;3.28;63.26;94092.03;5048517;28;20233;-71
2024/01/16 06:18:47;;;;;;;1.77;1.67;;;;;;;3.17;63.41;94099.91;5051519;28;20221;-71
2024/01/16 06:21:13;;;;;;;1.70;1.60;;;;;;;3.37;63.07;94106.84;5047500;28;20213;-73
2024/01/16 06:23:38;;;;;;;3.30;2.07;;;;;;;3.41;63.10;94103.03;5065477;28;20221;-74
2024/01/16 06:26:04;;;;;;;2.17;1.93;;;;;;;3.44;62.85;94105.34;5046792;28;20197;-75
2024/01/16 06:28:29;;;;;;;2.07;1.87;;;;;;;3.40;63.06;94096.19;5051570;28;20221;-74
2024/01/16 06:30:54;;;;;;;1.93;1.83;;;;;;;3.46;62.94;94115.63;5068337;28;20217;-75
2024/01/16 06:33:20;;;;;;;3.20;2.20;;;;;;;3.61;62.45;94113.47;5048453;28;20247;-72
2024/01/16 06:35:45;;;;;;;2.60;2.23;;;;;;;3.48;62.77;94122.34;5051173;28;20300;-72
2024/01/16 06:38:11;;;;;;;2.20;2.00;;;;;;;3.50;62.45;94136.03;5050723;28;20201;-72
2024/01/16 06:40:36;;;;;;;2.30;1.90;;;;;;;3.52;62.40;94147.13;5054549;28;20244;-72
2024/01/16 06:43:02;;;;;;;1.90;1.67;;;;;;;3.46;61.50;94142.44;5034300;28;20242;-72
2024/01/16 06:45:27;;;;;;;2.00;1.73;;;;;;;3.60;60.42;94156.03;5054409;28;20221;-71
2024/01/16 06:47:53;;;;;;;1.77;1.67;;;;;;;3.37;60.49;94153.63;5071462;28;20287;-72
2024/01/16 06:50:19;;;;;;;1.93;1.73;;;;;;;3.36;59.80;94161.53;5054863;28;20188;-73
2024/01/16 06:52:44;;;;;;;1.50;1.40;;;;;;;3.22;59.99;94176.50;5036665;28;20178;-73
2024/01/16 06:55:10;;;;;;;1.50;1.40;;;;;;;3.25;59.66;94185.81;5047443;28;20271;-73
2024/01/16 06:57:35;;;;;;;1.57;1.47;;;;;;;3.28;58.93;94188.16;5052832;28;20240;-74
2024/01/16 07:00:01;;;;;;;1.70;1.53;;;;;;;3.16;59.38;94202.19;5053819;28;20228;-75
2024/01/16 07:02:26;;;;;;;3.20;1.57;;;;;;;3.09;59.20;94207.88;5056000;28;20292;-81
2024/01/16 07:04:51;;;;;;;1.37;1.27;;;;;;;3.10;59.49;94200.91;5052958;28;20197;-74
2024/01/16 07:07:17;;;;;;;2.23;1.70;;;;;;;3.14;59.16;94210.09;5054724;28;20229;-82
2024/01/16 07:09:43;;;;;;;1.70;1.50;;;;;;;3.34;58.99;94200.63;5055126;28;20225;-76
2024/01/16 07:12:08;;;;;;;1.70;1.60;;;;;;;3.33;58.52;94212.00;5047563;28;20216;-72
2024/01/16 07:14:34;;;;;;;1.83;1.67;;;;;;;3.11;59.42;94217.31;5050677;28;20178;-74
2024/01/16 07:17:00;;;;;;;2.27;1.80;;;;;;;3.19;59.61;94240.91;5043846;28;20300;-74
2024/01/16 07:19:25;;;;;;;2.53;1.50;;;;;;;3.12;59.49;94253.56;5052514;28;20225;-77
2024/01/16 07:21:50;;;;;;;1.97;1.50;;;;;;;3.11;59.89;94256.28;5052492;28;20228;-72
2024/01/16 07:24:16;;;;;;;1.73;1.27;;;;;;;3.03;59.68;94275.09;5053566;28;20221;-77
2024/01/16 07:26:41;;;;;;;1.47;1.30;;;;;;;3.13;59.69;94275.16;5051517;28;20217;-81
2024/01/16 07:29:07;;;;;;;2.43;1.40;;;;;;;3.02;59.43;94271.69;5068613;28;20269;-77
2024/01/16 07:31:32;;;;;;;1.67;1.47;;;;;;;3.09;59.46;94280.59;5049767;28;20218;-84
2024/01/16 07:33:58;;;;;;;1.67;1.17;;;;;;;3.17;58.90;94281.75;5062036;28;20225;-81
2024/01/16 07:36:23;;;;;;;1.67;1.50;;;;;;;3.06;59.19;94295.63;5056932;28;20224;-74
2024/01/16 07:38:49;;;;;;;1.93;1.40;;;;;;;2.92;59.47;94294.13;5052082;28;20270;-76
2024/01/16 07:41:14;;;;;;;3.23;1.70;;;;;;;3.06;59.14;94290.44;5052184;28;20181;-74
2024/01/16 07:43:40;;;;;;;2.10;1.83;;;;;;;3.13;58.88;94307.16;5051935;28;20210;-78
2024/01/16 07:46:05;;;;;;;2.13;1.50;;;;;;;3.25;58.64;94313.94;5054204;28;20221;-74
2024/01/16 07:48:30;;;;;;;1.60;1.47;;;;;;;3.12;58.37;94299.50;5054020;28;20220;-74
2024/01/16 07:50:56;;;;;;;1.80;1.60;;;;;;;3.02;59.19;94292.47;5052262;28;20213;-76
2024/01/16 07:53:21;;;;;;;2.97;1.93;;;;;;;3.14;59.34;94315.78;5049260;28;20182;-75
2024/01/16 07:55:47;;;;;;;2.60;1.77;;;;;;;3.12;59.31;94322.88;5051708;28;20277;-79
2024/01/16 07:58:14;;;;;;;2.20;1.47;;;;;;;3.09;59.28;94326.53;5055534;28;20245;-78
2024/01/16 08:00:40;;;;;;;1.80;1.40;;;;;;;3.07;59.35;94333.63;5053727;28;20218;-74
2024/01/16 08:03:08;;;;;;;1.30;1.20;;;;;;;3.12;59.43;94346.25;5051555;28;20308;-70
2024/01/16 08:05:33;;;;;;;1.43;1.30;;;;;;;3.26;58.73;94351.16;5047685;28;20178;-77
2024/01/16 08:07:59;;;;;;;1.97;1.60;;;;;;;3.12;59.36;94351.44;5053682;28;20177;-77
2024/01/16 08:10:25;;;;;;;3.27;2.40;;;;;;;3.36;58.86;94353.84;5051141;28;20210;-78
2024/01/16 08:12:50;;;;;;;2.27;1.90;;;;;;;3.43;58.57;94358.41;5055648;28;20262;-77
2024/01/16 08:15:16;;;;;;;2.10;1.87;;;;;;;3.40;58.56;94360.44;5051849;28;20248;-78
2024/01/16 08:17:41;;;;;;;2.70;2.20;;;;;;;3.40;58.49;94366.47;5053989;28;20241;-78
2024/01/16 08:20:09;;;;;;;2.00;1.80;;;;;;;3.43;58.30;94376.59;5053625;28;20177;-78
2024/01/16 08:22:36;;;;;;;2.90;2.07;;;;;;;3.49;57.83;94381.31;5053150;28;20226;-78
2024/01/16 08:25:04;;;;;;;2.43;1.80;;;;;;;3.33;57.91;94387.88;5049469;28;20217;-71
2024/01/16 08:27:30;;;;;;;3.30;1.90;;;;;;;3.31;58.25;94394.03;5048725;28;20245;-70
2024/01/16 08:29:55;;;;;;;1.60;1.50;;;;;;;3.38;57.87;94393.53;5051734;28;20233;-71
2024/01/16 08:32:21;;;;;;;2.17;1.80;;;;;;;3.38;57.53;94399.53;5048063;28;20182;-71
2024/01/16 08:34:47;;;;;;;3.00;1.80;;;;;;;3.21;58.18;94402.69;5051630;28;20205;-69
2024/01/16 08:37:12;;;;;;;2.10;1.90;;;;;;;3.16;58.21;94415.22;5048882;28;20229;-68
2024/01/16 08:39:38;;;;;;;2.33;2.07;;;;;;;3.19;58.29;94415.78;5047192;28;20218;-79
2024/01/16 08:42:04;;;;;;;2.20;2.00;;;;;;;3.20;57.81;94414.00;5052407;28;20221;-67
2024/01/16 08:44:29;;;;;;;2.60;2.40;;;;;;;3.29;57.58;94416.69;5048005;28;20205;-71
2024/01/16 08:46:55;;;;;;;2.30;2.10;;;;;;;3.25;56.68;94428.28;5066949;28;20178;-71
2024/01/16 08:49:20;;;;;;;3.20;2.30;;;;;;;3.35;56.35;94430.16;5048676;28;20229;-69
2024/01/16 08:51:46;;;;;;;2.43;2.03;;;;;;;3.38;56.67;94435.94;5049521;28;20224;-70
2024/01/16 08:54:11;;;;;;;5.37;1.73;;;;;;;3.30;56.44;94433.94;5048969;28;20241;-70
2024/01/16 08:56:37;;;;;;;2.00;1.80;;;;;;;3.13;56.34;94441.41;5047902;28;20299;-72
2024/01/16 08:59:02;;;;;;;1.60;1.50;;;;;;;3.12;56.34;94445.78;5052723;28;20216;-75
2024/01/16 09:01:28;;;;;;;1.60;1.50;;;;;;;3.30;56.34;94446.94;5050828;28;20218;-71
2024/01/16 09:03:53;;;;;;;1.87;1.70;;;;;;;3.21;56.73;94458.06;5049387;28;20224;-69
2024/01/16 09:06:19;;;;;;;1.40;1.30;;;;;;;3.22;56.60;94451.91;5050852;28;20216;-68
2024/01/16 09:08:44;;;;;;;2.50;1.20;;;;;;;3.29;56.04;94463.47;5046535;28;20304;-71
2024/01/16 09:11:11;;;;;;;1.60;1.30;;;;;;;3.05;56.77;94458.44;5049438;28;20188;-69
2024/01/16 09:13:37;;;;;;;1.27;1.17;;;;;;;3.06;56.43;94446.28;5047808;28;20228;-69
2024/01/16 09:16:03;;;;;;;1.60;1.50;;;;;;;3.30;56.19;94461.69;5050707;28;20221;-69
2024/01/16 09:18:28;;;;;;;1.40;1.30;;;;;;;3.19;56.36;94470.34;5049067;28;20220;-70
2024/01/16 09:20:54;;;;;;;1.83;1.53;;;;;;;3.21;55.76;94471.06;5050992;28;20221;-70
2024/01/16 09:23:20;;;;;;;1.67;1.57;;;;;;;3.19;56.16;94472.13;5050807;28;20284;-70
2024/01/16 09:25:45;;;;;;;1.73;1.40;;;;;;;3.08;56.56;94465.97;5051281;28;20185;-69
2024/01/16 09:28:11;;;;;;;2.00;1.60;;;;;;;3.19;55.90;94487.72;5049113;28;20214;-69
2024/01/16 09:30:37;;;;;;;1.70;1.60;;;;;;;3.21;55.90;94472.81;5048188;28;20233;-72
2024/01/16 09:33:06;;;;;;;1.57;1.47;;;;;;;3.28;55.56;94484.38;5049865;28;20328;-69
2024/01/16 09:35:32;;;;;;;1.57;1.47;;;;;;;3.28;55.88;94477.41;5051271;28;20189;-77
2024/01/16 09:37:59;;;;;;;1.97;1.77;;;;;;;3.47;55.55;94475.94;5051684;28;20239;-71
2024/01/16 09:40:25;;;;;;;2.20;1.90;;;;;;;3.49;55.24;94467.06;5047381;28;20256;-72
2024/01/16 09:42:50;;;;;;;3.20;1.80;;;;;;;3.43;54.95;94456.34;5047648;28;20244;-71
2024/01/16 09:45:20;;;;;;;3.00;1.60;;;;;;;3.50;54.77;94476.53;5049871;28;20237;-71
2024/01/16 09:47:47;;;;;;;1.93;1.70;;;;;;;3.61;54.44;94467.03;5048774;28;20213;-75
2024/01/16 09:50:16;;;;;;;1.80;1.50;;;;;;;3.89;53.85;94474.28;5049410;28;20181;-75
2024/01/16 09:52:41;;;;;;;1.83;1.70;;;;;;;3.87;53.81;94486.56;5039844;28;20233;-74
2024/01/16 09:55:10;;;;;;;1.63;1.40;;;;;;;3.88;53.16;94480.44;5067149;28;20304;-76
2024/01/16 09:57:40;;;;;;;4.77;1.70;;;;;;;3.94;52.89;94484.31;5065782;28;20247;-68
2024/01/16 10:00:14;;;;;;;1.90;1.63;;;;;;;4.02;52.56;94487.13;5054357;28;20217;-77
2024/01/16 10:02:40;;;;;;;4.20;1.50;;;;;;;4.01;52.52;94476.81;5050480;28;20323;-70
2024/01/16 10:05:10;;;;;;;3.67;1.50;;;;;;;3.88;52.93;94464.00;5047886;28;20193;-74
2024/01/16 10:07:40;;;;;;;1.70;1.60;;;;;;;4.05;52.70;94473.84;5039296;28;20221;-75
2024/01/16 10:10:10;;;;;;;5.60;2.00;;;;;;;4.19;52.38;94476.13;5058218;28;20217;-73
2024/01/16 10:12:37;;;;;;;2.77;2.00;;;;;;;4.39;52.03;94479.72;5051468;28;20225;-70
2024/01/16 10:15:05;;;;;;;1.97;1.77;;;;;;;4.55;51.23;94479.25;5049413;28;20217;-76
2024/01/16 10:17:44;;;;;;;1.60;1.50;;;;;;;4.31;51.28;94473.50;5053914;28;20193;-79
2024/01/16 10:20:16;;;;;;;4.47;2.00;;;;;;;4.29;51.82;94484.03;5054059;28;20208;-72
2024/01/16 10:22:52;;;;;;;3.57;1.57;;;;;;;4.51;50.38;94484.84;5053444;28;20217;-72
2024/01/16 10:25:19;;;;;;;1.97;1.77;;;;;;;4.47;50.14;94481.69;5051419;28;20241;-74
2024/01/16 10:27:46;;;;;;;2.00;1.37;;;;;;;4.41;50.69;94488.22;5051711;28;20233;-74
2024/01/16 10:30:12;;;;;;;6.40;2.00;;;;;;;4.46;49.72;94476.59;5052821;28;20224;-73
2024/01/16 10:32:40;;;;;;;2.27;1.67;;;;;;;4.60;50.00;94476.28;5051537;28;20281;-73
2024/01/16 10:35:08;;;;;;;3.53;2.27;;;;;;;4.65;49.76;94487.09;5070409;28;20255;-74
2024/01/16 10:37:50;;;;;;;3.50;2.00;;;;;;;4.68;49.43;94484.25;5054238;28;20244;-74
2024/01/16 10:40:18;;;;;;;2.17;1.97;;;;;;;4.93;48.77;94475.19;5066076;28;20227;-73
2024/01/16 10:42:56;;;;;;;1.90;1.50;;;;;;;5.05;48.10;94487.19;5036364;28;20222;-74
2024/01/16 10:45:22;;;;;;;2.67;1.80;;;;;;;5.31;47.89;94495.34;5053915;28;20213;-73
2024/01/16 10:47:49;;;;;;;2.43;1.90;;;;;;;5.53;46.87;94486.50;5051687;28;20281;-74
2024/01/16 10:50:15;;;;;;;3.33;1.90;;;;;;;5.53;46.74;94494.34;5053849;28;20276;-75
2024/01/16 10:52:51;;;;;;;3.27;1.57;;;;;;;5.69;46.60;94488.59;5052361;28;20301;-74
2024/01/16 10:55:22;;;;;;;2.20;1.80;;;;;;;5.69;46.14;94482.53;5053916;28;20217;-74
2024/01/16 10:57:49;;;;;;;1.73;1.60;;;;;;;5.65;45.94;94484.59;5070473;28;20260;-74
2024/01/16 11:00:18;;;;;;;1.90;1.43;;;;;;;5.82;45.53;94483.09;5052960;28;20218;-73
2024/01/16 11:02:51;;;;;;;3.63;1.60;;;;;;;5.93;45.14;94476.91;5048837;28;20222;-74
2024/01/16 11:05:17;;;;;;;2.33;1.97;;;;;;;5.70;45.66;94495.44;5029568;28;20178;-72
2024/01/16 11:07:44;;;;;;;4.33;1.77;;;;;;;5.64;45.59;94488.16;5049593;28;20185;-73
2024/01/16 11:10:10;;;;;;;3.33;1.67;;;;;;;5.61;45.40;94485.81;5051150;28;20255;-72
2024/01/16 11:12:39;;;;;;;2.30;1.53;;;;;;;5.56;45.53;94495.84;5047908;28;20308;-72
2024/01/16 11:15:07;;;;;;;2.63;2.20;;;;;;;5.41;46.29;94497.16;5048119;28;20221;-74
2024/01/16 11:17:36;;;;;;;3.00;2.30;;;;;;;5.25;47.18;94506.31;5045048;28;20194;-73
2024/01/16 11:20:10;;;;;;;4.80;2.40;;;;;;;5.25;47.20;94508.09;5052600;28;20181;-72
2024/01/16 11:22:44;;;;;;;3.70;2.50;;;;;;;5.39;47.19;94510.31;5037141;28;20224;-72
2024/01/16 11:25:12;;;;;;;3.27;2.57;;;;;;;5.44;47.37;94494.28;5051679;28;20213;-77
2024/01/16 11:27:39;;;;;;;6.20;2.40;;;;;;;5.45;47.56;94501.16;5051694;28;20306;-75
2024/01/16 11:30:07;;;;;;;3.03;2.63;;;;;;;5.35;47.75;94500.31;5051254;28;20220;-71
2024/01/16 11:32:40;;;;;;;2.43;2.23;;;;;;;5.53;47.71;94493.47;5033101;28;20193;-69
2024/01/16 11:35:09;;;;;;;3.30;2.27;;;;;;;5.50;47.59;94504.19;5045642;28;20182;-76